createdAt,value
2023-05-28T00:01:57.934Z,99.90
2023-05-28T00:06:59.804Z,99.90
2023-05-28T00:12:02.681Z,99.90
2023-05-28T00:17:04.599Z,99.90
2023-05-28T00:22:06.411Z,99.90
2023-05-28T00:27:08.527Z,99.90
2023-05-28T00:32:10.612Z,99.90
2023-05-28T00:37:12.551Z,99.90
2023-05-28T00:42:14.485Z,99.90
2023-05-28T00:47:16.495Z,99.90
2023-05-28T00:52:18.344Z,99.90
2023-05-28T00:57:22.829Z,99.90
2023-05-28T01:02:24.846Z,99.90
2023-05-28T01:07:27.357Z,99.90
2023-05-28T01:12:30.026Z,99.90
2023-05-28T01:17:32.808Z,99.90
2023-05-28T01:22:41.800Z,99.90
2023-05-28T01:27:44.078Z,99.90
2023-05-28T01:32:45.949Z,99.90
2023-05-28T01:37:54.911Z,99.90
2023-05-28T01:42:58.120Z,99.90
2023-05-28T01:48:00.245Z,99.90
2023-05-28T01:53:02.276Z,99.90
2023-05-28T01:58:04.805Z,99.90
2023-05-28T02:03:07.600Z,99.90
2023-05-28T02:08:09.549Z,99.90
2023-05-28T02:13:11.357Z,99.90
2023-05-28T02:18:13.305Z,99.90
2023-05-28T02:23:15.259Z,99.90
2023-05-28T02:28:17.082Z,99.90
2023-05-28T02:33:19.023Z,99.90
2023-05-28T02:38:21.159Z,99.90
2023-05-28T02:43:22.975Z,99.90
2023-05-28T02:48:24.908Z,99.90
2023-05-28T02:53:31.086Z,99.90
2023-05-28T02:58:33.428Z,99.90
2023-05-28T03:03:35.424Z,99.90
2023-05-28T03:08:37.559Z,99.90
2023-05-28T03:13:39.355Z,99.90
2023-05-28T03:18:41.200Z,99.90
2023-05-28T03:23:42.987Z,99.90
2023-05-28T03:28:44.834Z,99.90
2023-05-28T03:33:46.892Z,99.90
2023-05-28T03:38:48.787Z,99.90
2023-05-28T03:43:50.873Z,99.90
2023-05-28T03:48:52.868Z,99.90
2023-05-28T03:53:54.749Z,99.90
2023-05-28T03:58:56.682Z,99.90
2023-05-28T04:03:58.623Z,99.90
2023-05-28T04:09:01.006Z,99.90
2023-05-28T04:14:02.911Z,99.90
2023-05-28T04:19:04.767Z,99.90
2023-05-28T04:24:06.941Z,99.90
2023-05-28T04:29:08.932Z,99.90
2023-05-28T04:34:12.055Z,99.90
2023-05-28T04:39:15.166Z,99.90
2023-05-28T04:44:17.197Z,99.90
2023-05-28T04:49:19.193Z,99.90
2023-05-28T04:54:21.876Z,99.90
2023-05-28T04:59:23.716Z,99.90
2023-05-28T05:04:25.743Z,99.90
2023-05-28T05:09:28.334Z,99.90
2023-05-28T05:14:30.307Z,99.90
2023-05-28T05:19:32.151Z,99.90
2023-05-28T05:24:34.084Z,99.90
2023-05-28T05:29:35.921Z,99.90
2023-05-28T05:34:37.985Z,99.90
2023-05-28T05:39:39.822Z,99.90
2023-05-28T05:44:41.632Z,99.90
2023-05-28T05:49:43.406Z,99.90
2023-05-28T05:54:45.379Z,99.90
2023-05-28T05:59:47.281Z,99.90
2023-05-28T06:04:49.114Z,99.90
2023-05-28T06:09:51.261Z,99.90
2023-05-28T06:14:53.665Z,99.90
2023-05-28T06:19:55.471Z,99.90
2023-05-28T06:24:57.327Z,99.90
2023-05-28T06:29:59.137Z,99.90
2023-05-28T06:35:01.915Z,99.90
2023-05-28T06:40:07.291Z,99.90
2023-05-28T06:45:09.728Z,99.90
2023-05-28T06:50:11.691Z,99.90
2023-05-28T06:55:13.533Z,99.90
2023-05-28T07:00:20.807Z,99.90
2023-05-28T07:05:22.994Z,99.90
2023-05-28T07:10:25.069Z,99.90
2023-05-28T07:15:26.919Z,99.90
2023-05-28T07:20:29.345Z,99.90
2023-05-28T07:25:31.213Z,99.90
2023-05-28T07:30:33.084Z,99.90
2023-05-28T07:35:37.524Z,99.90
2023-05-28T07:40:39.747Z,99.90
2023-05-28T07:45:41.645Z,99.90
2023-05-28T07:50:43.505Z,99.90
2023-05-28T07:55:46.135Z,99.90
2023-05-28T08:00:48.105Z,99.90
2023-05-28T08:05:49.898Z,99.90
2023-05-28T08:10:51.933Z,99.90
2023-05-28T08:15:54.022Z,99.90
2023-05-28T08:20:56.361Z,99.90
2023-05-28T08:25:58.207Z,99.90
2023-05-28T08:31:00.153Z,99.90
2023-05-28T08:36:03.120Z,99.90
2023-05-28T08:41:06.574Z,99.90
2023-05-28T08:46:08.389Z,99.90
2023-05-28T08:51:10.991Z,99.90
2023-05-28T08:56:14.142Z,99.90
2023-05-28T09:01:16.657Z,99.90
2023-05-28T09:06:18.696Z,99.90
2023-05-28T09:11:20.898Z,99.90
2023-05-28T09:16:24.246Z,99.90
2023-05-28T09:21:26.621Z,99.90
2023-05-28T09:26:31.557Z,99.90
2023-05-28T09:31:34.218Z,99.90
2023-05-28T09:36:37.714Z,99.90
2023-05-28T09:41:45.274Z,99.90
2023-05-28T09:46:47.880Z,99.90
2023-05-28T09:51:54.065Z,99.90
2023-05-28T09:56:59.435Z,99.90
2023-05-28T10:02:31.688Z,99.90
2023-05-28T10:07:35.820Z,99.90
2023-05-28T10:12:39.216Z,99.90
2023-05-28T10:17:46.318Z,99.90
2023-05-28T10:22:49.352Z,99.90
2023-05-28T10:27:51.298Z,99.90
2023-05-28T10:32:57.813Z,99.90
2023-05-28T10:38:06.619Z,99.90
2023-05-28T10:43:46.350Z,99.90
2023-05-28T10:49:11.797Z,99.90
2023-05-28T10:54:21.889Z,99.90
2023-05-28T10:59:57.917Z,99.90
2023-05-28T11:05:02.591Z,99.90
2023-05-28T11:10:09.948Z,99.90
2023-05-28T11:15:13.254Z,99.90
2023-05-28T11:20:20.722Z,99.90
2023-05-28T11:25:23.395Z,99.90
2023-05-28T11:30:25.986Z,99.90
2023-05-28T11:35:27.775Z,99.90
2023-05-28T11:40:34.838Z,99.90
2023-05-28T11:45:40.747Z,99.90
2023-05-28T11:50:42.812Z,99.90
2023-05-28T11:55:44.792Z,99.90
2023-05-28T12:00:46.594Z,99.90
2023-05-28T12:05:48.523Z,99.90
2023-05-28T12:10:50.727Z,99.90
2023-05-28T12:16:05.817Z,99.90
2023-05-28T12:21:12.088Z,99.90
2023-05-28T12:26:15.995Z,99.90
2023-05-28T12:31:17.970Z,99.90
2023-05-28T12:36:19.766Z,99.90
2023-05-28T12:41:22.567Z,99.90
2023-05-28T12:46:24.431Z,99.90
2023-05-28T12:51:26.883Z,99.90
2023-05-28T12:56:28.892Z,99.90
2023-05-28T13:01:30.752Z,99.90
2023-05-28T13:06:32.547Z,99.90
2023-05-28T13:11:34.407Z,99.90
2023-05-28T13:16:39.317Z,99.90
2023-05-28T13:21:41.182Z,99.90
2023-05-28T13:26:43.339Z,99.90
2023-05-28T13:31:45.475Z,99.90
2023-05-28T13:36:47.435Z,99.90
2023-05-28T13:41:55.582Z,99.90
2023-05-28T13:46:57.458Z,99.90
2023-05-28T13:52:00.922Z,99.90
2023-05-28T13:57:03.514Z,99.90
2023-05-28T14:02:05.893Z,99.90
2023-05-28T14:07:10.072Z,99.90
2023-05-28T14:17:16.716Z,99.90
2023-05-28T14:22:18.649Z,99.90
2023-05-28T14:27:20.432Z,99.90
2023-05-28T14:32:22.377Z,99.90
2023-05-28T14:37:24.891Z,99.90
2023-05-28T14:42:26.997Z,99.90
2023-05-28T14:47:28.930Z,99.90
2023-05-28T14:52:31.853Z,99.90
2023-05-28T14:57:37.464Z,99.90
2023-05-28T15:02:39.843Z,99.90
2023-05-28T15:07:41.952Z,99.90
2023-05-28T15:12:43.843Z,99.90
2023-05-28T15:17:45.683Z,99.90
2023-05-28T15:22:47.502Z,99.90
2023-05-28T15:27:49.478Z,99.70
2023-05-28T15:32:55.309Z,99.90
2023-05-28T15:37:58.065Z,99.90
2023-05-28T15:43:05.069Z,99.90
2023-05-28T15:48:06.989Z,99.90
2023-05-28T15:53:09.047Z,99.30
2023-05-28T15:58:11.322Z,99.90
2023-05-28T16:03:15.719Z,99.10
2023-05-28T16:08:17.810Z,98.30
2023-05-28T16:13:30.739Z,98.70
2023-05-28T16:18:34.335Z,98.90
2023-05-28T16:23:36.501Z,99.30
2023-05-28T16:28:38.792Z,98.00
2023-05-28T16:33:41.182Z,98.90
2023-05-28T16:38:43.125Z,98.60
2023-05-28T16:43:45.414Z,97.70
2023-05-28T16:48:47.501Z,98.10
2023-05-28T16:53:51.373Z,98.90
2023-05-28T16:58:53.734Z,99.30
2023-05-28T17:03:55.915Z,99.90
2023-05-28T17:08:58.033Z,99.50
2023-05-28T17:13:59.871Z,99.60
2023-05-28T17:19:01.687Z,99.00
2023-05-28T17:24:03.917Z,99.80
2023-05-28T17:29:06.890Z,98.90
2023-05-28T17:34:09.345Z,99.10
2023-05-28T17:39:11.372Z,98.20
2023-05-28T17:44:14.055Z,98.90
2023-05-28T17:49:16.054Z,99.10
2023-05-28T17:54:18.075Z,99.00
2023-05-28T17:59:20.786Z,99.40
2023-05-28T18:04:22.604Z,99.10
2023-05-28T18:09:24.530Z,99.40
2023-05-28T18:14:31.397Z,99.40
2023-05-28T18:19:33.455Z,99.10
2023-05-28T18:24:35.406Z,99.90
2023-05-28T18:29:37.525Z,99.90
2023-05-28T18:34:39.763Z,99.90
2023-05-28T18:39:41.731Z,99.90
2023-05-28T18:44:43.757Z,99.90
2023-05-28T18:49:45.582Z,99.90
2023-05-28T18:54:47.393Z,99.90
2023-05-28T18:59:51.165Z,99.90
2023-05-28T19:04:53.172Z,99.90
2023-05-28T19:09:56.024Z,99.90
2023-05-28T19:14:59.894Z,99.90
2023-05-28T19:20:02.003Z,99.90
2023-05-28T19:25:04.945Z,99.90
2023-05-28T19:30:10.062Z,99.90
2023-05-28T19:35:11.933Z,99.90
2023-05-28T19:40:13.813Z,99.90
2023-05-28T19:45:15.802Z,99.90
2023-05-28T19:50:17.622Z,99.90
2023-05-28T19:55:19.432Z,99.90
2023-05-28T20:00:21.712Z,99.90
2023-05-28T20:05:23.544Z,99.90
2023-05-28T20:10:25.505Z,99.90
2023-05-28T20:15:27.857Z,99.90
2023-05-28T20:20:29.755Z,99.90
2023-05-28T20:25:32.626Z,99.90
2023-05-28T20:30:34.488Z,99.90
2023-05-28T20:35:36.882Z,99.90
2023-05-28T20:40:39.616Z,99.90
2023-05-28T20:45:41.684Z,99.90
2023-05-28T20:50:43.513Z,99.90
2023-05-28T20:55:46.185Z,99.90
2023-05-28T21:00:49.256Z,99.90
2023-05-28T21:05:51.158Z,99.90
2023-05-28T21:10:52.977Z,99.90
2023-05-28T21:15:54.804Z,99.90
2023-05-28T21:20:57.138Z,99.90
2023-05-28T21:25:59.736Z,99.90
2023-05-28T21:31:02.006Z,99.90
2023-05-28T21:36:04.134Z,99.90
2023-05-28T21:41:06.018Z,99.90
2023-05-28T21:46:08.540Z,99.90
2023-05-28T21:51:10.623Z,99.90
2023-05-28T21:56:12.538Z,99.90
2023-05-28T22:01:14.372Z,99.90
2023-05-28T22:06:16.316Z,99.90
2023-05-28T22:11:18.667Z,99.90
2023-05-28T22:16:20.676Z,99.90
2023-05-28T22:21:22.600Z,99.90
2023-05-28T22:26:25.841Z,99.90
2023-05-28T22:31:27.875Z,99.90
2023-05-28T22:36:29.712Z,99.90
2023-05-28T22:41:31.512Z,99.90
2023-05-28T22:46:33.336Z,99.90
2023-05-28T22:51:35.549Z,99.90
2023-05-28T22:56:42.176Z,99.90
2023-05-28T23:01:46.933Z,99.90
2023-05-28T23:06:49.738Z,99.90
2023-05-28T23:11:51.792Z,99.90
2023-05-28T23:16:53.693Z,99.90
2023-05-28T23:21:55.752Z,99.90
2023-05-28T23:26:57.663Z,99.90
2023-05-28T23:31:59.658Z,99.90
2023-05-28T23:37:02.607Z,99.90
2023-05-28T23:42:04.785Z,99.90
2023-05-28T23:47:06.810Z,99.90
2023-05-28T23:52:09.282Z,99.90
2023-05-28T23:57:11.381Z,99.90
